Terminal Aerodrome Forecast
Issued by NWS

Home | Current Version | Previous Version | Text Only | Print | Product List | Glossary On
Versions: 1 2 3 4 5 6 7 8 9 10 11 12 13 14 15
846
FTUS43 KGRR 080539
TAFJXN
TAF
KJXN 080539Z 0806/0906 24007KT P6SM SCT035
     FM081200 24003KT 4SM BR BKN025
     FM081600 27005KT P6SM VCSH BKN035=

USA.gov is the U.S. government's official web portal to all federal, state and local government web resources and services.